CDT,Max TemperatureF,Mean TemperatureF,Min TemperatureF,Max Dew PointF,MeanDew PointF,Min DewpointF,Max Humidity, Mean Humidity, Min Humidity, Max Sea Level PressureIn, Mean Sea Level PressureIn, Min Sea Level PressureIn, Max VisibilityMiles, Mean VisibilityMiles, Min VisibilityMiles, Max Wind SpeedMPH, Mean Wind SpeedMPH, Max Gust SpeedMPH,PrecipitationIn, CloudCover, Events, WindDirDegrees
2013-4-1,39,34,29,26,16,9,63,46,30,30.17,30.07,29.88,10,10,10,15,9,23,0.00,2,,325
2013-4-2,44,33,22,18,12,6,69,43,21,30.30,30.24,30.17,10,10,10,15,6,23,0.00,1,,308
2013-4-3,43,30,18,24,17,9,87,57,32,30.46,30.38,30.30,10,10,10,13,3,18,0.00,0,,44
2013-4-4,58,39,21,26,19,15,85,47,20,30.33,30.13,29.98,10,10,10,15,3,18,0.00,0,,248
2013-4-5,46,40,34,34,26,17,87,57,35,30.23,30.15,29.99,10,10,7,20,10,25,0.00,1,,29
2013-4-6,71,52,33,43,30,22,75,45,24,30.17,29.89,29.63,10,10,10,36,13,47,0.00,3,Rain-Thunderstorm,163
2013-4-7,59,48,38,48,38,33,85,71,43,29.97,29.87,29.65,10,10,7,23,14,43,0.07,3,Rain,319
2013-4-8,70,54,37,56,44,33,94,75,49,29.99,29.81,29.66,10,9,4,31,11,44,0.21,3,Rain-Thunderstorm,117
2013-4-9,76,58,39,57,42,38,96,86,50,30.00,29.92,29.81,10,7,3,15,6,26,0.01,7,Rain-Thunderstorm,30
2013-4-10,44,41,38,42,39,37,100,94,87,29.96,29.88,29.80,10,6,2,21,10,26,0.48,8,Rain-Thunderstorm,23
2013-4-11,53,46,39,52,45,38,97,94,91,29.86,29.65,29.57,10,6,2,18,11,26,0.72,8,Rain-Thunderstorm,127
2013-4-12,45,40,36,38,34,30,87,80,68,29.86,29.70,29.60,10,10,4,22,14,34,0.00,8,Rain,250
2013-4-13,46,40,35,33,30,27,88,69,50,29.99,29.92,29.87,10,10,5,22,12,29,0.00,7,Rain-Snow,264
2013-4-14,68,53,38,49,39,30,84,60,47,30.01,29.86,29.70,10,10,10,22,8,29,0.00,4,,120
2013-4-15,65,56,47,56,50,44,96,78,55,29.97,29.84,29.72,10,9,4,30,17,36,0.97,7,Rain,219
2013-4-16,51,46,40,45,37,32,93,73,59,30.26,30.13,29.95,10,10,2,12,6,17,0.29,6,Rain-Thunderstorm,22
2013-4-17,54,47,41,52,41,32,97,83,68,30.27,30.10,29.81,10,8,2,24,10,47,1.67,8,Rain-Thunderstorm,65
2013-4-18,62,53,44,59,55,37,96,91,76,29.81,29.59,29.46,10,7,1,26,11,38,2.62,7,Rain-Thunderstorm,180
2013-4-19,41,38,34,35,30,27,84,73,66,29.92,29.67,29.53,10,10,5,30,21,39,0.05,8,Rain-Snow,256
2013-4-20,45,38,32,28,22,17,80,57,36,30.44,30.22,29.93,10,10,10,15,9,25,0.00,3,,334
2013-4-21,52,40,29,30,25,20,71,51,34,30.53,30.44,30.34,10,10,10,15,7,21,0.00,0,,140
2013-4-22,65,51,37,37,32,30,77,48,27,30.34,30.21,30.06,10,10,10,13,8,18,0.00,0,,151
2013-4-23,61,49,37,52,43,35,95,78,53,30.06,29.94,29.88,10,9,4,18,9,26,0.51,6,Rain,188
2013-4-24,49,42,36,35,31,26,92,71,42,30.15,30.03,29.91,10,10,4,16,9,23,0.04,6,Rain,319
2013-4-25,50,43,36,35,31,26,81,63,40,30.34,30.21,30.09,10,10,10,18,10,25,0.00,4,Rain,249
2013-4-26,66,50,34,43,37,28,84,60,41,30.37,30.32,30.26,10,10,10,22,7,29,0.00,0,,191
2013-4-27,68,54,40,50,41,34,97,63,28,30.31,30.18,30.01,10,9,3,15,4,18,0.00,3,,137
2013-4-28,61,54,48,52,51,47,95,85,72,30.00,29.89,29.84,10,7,3,10,5,16,0.01,6,Rain,47
2013-4-29,73,59,46,52,50,46,98,70,46,29.94,29.88,29.81,10,8,0,18,6,25,0.00,1,Fog,200
2013-4-30,83,70,57,58,54,50,79,60,37,29.97,29.88,29.83,10,10,10,22,15,26,0.00,0,,187